sensor_id;sensor_type;location;lat;lon;timestamp;P1;P2;P0
69349;PMS5003;64554;43.452;4.934;2023-01-16T00:01:03;4.75;4.75;3.75
69349;PMS5003;64554;43.452;4.934;2023-01-16T00:03:29;6.00;5.00;3.00
69349;PMS5003;64554;43.452;4.934;2023-01-16T00:05:56;7.60;4.60;2.60
69349;PMS5003;64554;43.452;4.934;2023-01-16T00:08:22;10.00;6.00;3.25
69349;PMS5003;64554;43.452;4.934;2023-01-16T00:10:49;7.60;6.00;4.00
69349;PMS5003;64554;43.452;4.934;2023-01-16T00:13:15;5.00;5.00;3.00
69349;PMS5003;64554;43.452;4.934;2023-01-16T00:15:43;6.50;4.50;3.00
69349;PMS5003;64554;43.452;4.934;2023-01-16T00:18:10;9.00;7.00;3.00
69349;PMS5003;64554;43.452;4.934;2023-01-16T00:20:36;6.25;5.00;3.00
69349;PMS5003;64554;43.452;4.934;2023-01-16T00:23:03;5.00;4.00;2.00
69349;PMS5003;64554;43.452;4.934;2023-01-16T00:25:29;5.80;5.80;2.20
69349;PMS5003;64554;43.452;4.934;2023-01-16T00:27:56;4.80;2.00;2.00
69349;PMS5003;64554;43.452;4.934;2023-01-16T00:30:22;4.00;4.00;3.00
69349;PMS5003;64554;43.452;4.934;2023-01-16T00:32:49;5.00;2.00;1.00
69349;PMS5003;64554;43.452;4.934;2023-01-16T00:35:15;2.00;2.00;1.75
69349;PMS5003;64554;43.452;4.934;2023-01-16T00:37:42;1.00;1.00;1.00
69349;PMS5003;64554;43.452;4.934;2023-01-16T00:40:08;3.00;2.00;1.00
69349;PMS5003;64554;43.452;4.934;2023-01-16T00:42:35;2.60;2.60;2.00
69349;PMS5003;64554;43.452;4.934;2023-01-16T00:45:02;3.50;3.50;2.00
69349;PMS5003;64554;43.452;4.934;2023-01-16T00:47:28;5.50;5.50;2.00
69349;PMS5003;64554;43.452;4.934;2023-01-16T00:49:55;4.00;4.00;2.00
69349;PMS5003;64554;43.452;4.934;2023-01-16T00:52:21;2.40;2.40;1.60
69349;PMS5003;64554;43.452;4.934;2023-01-16T00:54:48;4.50;4.50;2.75
69349;PMS5003;64554;43.452;4.934;2023-01-16T00:57:15;3.00;3.00;1.50
69349;PMS5003;64554;43.452;4.934;2023-01-16T00:59:41;3.00;3.00;2.00
69349;PMS5003;64554;43.452;4.934;2023-01-16T01:02:07;3.60;3.60;2.00
69349;PMS5003;64554;43.452;4.934;2023-01-16T01:04:34;4.00;4.00;3.00
69349;PMS5003;64554;43.452;4.934;2023-01-16T01:07:01;4.00;4.00;2.50
69349;PMS5003;64554;43.452;4.934;2023-01-16T01:09:27;7.00;5.60;3.00
69349;PMS5003;64554;43.452;4.934;2023-01-16T01:11:55;6.50;5.50;4.00
69349;PMS5003;64554;43.452;4.934;2023-01-16T01:14:22;5.00;5.00;2.25
69349;PMS5003;64554;43.452;4.934;2023-01-16T01:16:49;2.80;2.00;1.00
69349;PMS5003;64554;43.452;4.934;2023-01-16T01:19:15;4.75;3.75;1.00
69349;PMS5003;64554;43.452;4.934;2023-01-16T01:21:41;2.50;2.25;1.00
69349;PMS5003;64554;43.452;4.934;2023-01-16T01:24:08;2.50;1.50;1.00
69349;PMS5003;64554;43.452;4.934;2023-01-16T01:26:35;2.00;2.00;0.60
69349;PMS5003;64554;43.452;4.934;2023-01-16T01:29:02;3.50;2.50;1.00
69349;PMS5003;64554;43.452;4.934;2023-01-16T01:31:28;2.00;1.00;0.00
69349;PMS5003;64554;43.452;4.934;2023-01-16T01:33:55;3.75;1.00;0.00
69349;PMS5003;64554;43.452;4.934;2023-01-16T01:36:21;2.40;2.00;1.00
69349;PMS5003;64554;43.452;4.934;2023-01-16T01:38:48;2.25;2.00;1.00
69349;PMS5003;64554;43.452;4.934;2023-01-16T01:41:17;3.00;1.00;0.00
69349;PMS5003;64554;43.452;4.934;2023-01-16T01:43:50;3.00;1.00;0.00
69349;PMS5003;64554;43.452;4.934;2023-01-16T01:46:19;2.00;0.75;0.00
69349;PMS5003;64554;43.452;4.934;2023-01-16T01:48:47;1.00;1.00;1.00
69349;PMS5003;64554;43.452;4.934;2023-01-16T01:51:17;3.00;1.00;0.00
69349;PMS5003;64554;43.452;4.934;2023-01-16T01:53:50;1.00;1.00;0.00
69349;PMS5003;64554;43.452;4.934;2023-01-16T01:56:21;2.00;1.00;0.00
69349;PMS5003;64554;43.452;4.934;2023-01-16T01:58:52;2.00;1.00;0.00
69349;PMS5003;64554;43.452;4.934;2023-01-16T02:01:19;3.80;2.00;0.80
69349;PMS5003;64554;43.452;4.934;2023-01-16T02:03:48;1.00;1.00;0.00
69349;PMS5003;64554;43.452;4.934;2023-01-16T02:06:17;1.60;1.60;1.00
69349;PMS5003;64554;43.452;4.934;2023-01-16T02:08:45;3.00;1.00;1.00
69349;PMS5003;64554;43.452;4.934;2023-01-16T02:11:14;1.00;1.00;0.60
69349;PMS5003;64554;43.452;4.934;2023-01-16T02:14:06;3.00;2.00;0.40
69349;PMS5003;64554;43.452;4.934;2023-01-16T02:16:33;0.50;0.50;0.00
69349;PMS5003;64554;43.452;4.934;2023-01-16T02:21:50;2.40;1.00;0.00
69349;PMS5003;64554;43.452;4.934;2023-01-16T02:29:42;1.00;1.00;1.00
69349;PMS5003;64554;43.452;4.934;2023-01-16T02:34:48;2.60;2.00;1.00
69349;PMS5003;64554;43.452;4.934;2023-01-16T02:37:42;9.00;3.00;2.00
69349;PMS5003;64554;43.452;4.934;2023-01-16T02:40:12;11.80;8.40;3.00
69349;PMS5003;64554;43.452;4.934;2023-01-16T02:42:43;26.00;19.00;7.00
69349;PMS5003;64554;43.452;4.934;2023-01-16T02:50:37;11.60;10.00;6.00
69349;PMS5003;64554;43.452;4.934;2023-01-16T02:53:26;14.00;10.00;6.00
69349;PMS5003;64554;43.452;4.934;2023-01-16T02:55:55;10.40;9.00;5.00
69349;PMS5003;64554;43.452;4.934;2023-01-16T02:58:23;6.00;6.00;3.00
69349;PMS5003;64554;43.452;4.934;2023-01-16T03:00:52;7.20;6.80;3.80
69349;PMS5003;64554;43.452;4.934;2023-01-16T03:03:41;8.20;4.60;3.00
69349;PMS5003;64554;43.452;4.934;2023-01-16T03:06:10;6.20;3.80;1.20
69349;PMS5003;64554;43.452;4.934;2023-01-16T03:08:42;6.00;3.40;2.00
69349;PMS5003;64554;43.452;4.934;2023-01-16T03:11:14;4.00;2.60;1.00
69349;PMS5003;64554;43.452;4.934;2023-01-16T03:26:45;2.40;2.00;2.00
69349;PMS5003;64554;43.452;4.934;2023-01-16T03:31:57;4.80;3.00;1.80
69349;PMS5003;64554;43.452;4.934;2023-01-16T03:36:52;4.75;2.25;1.00
69349;PMS5003;64554;43.452;4.934;2023-01-16T03:39:23;4.00;2.00;1.00
69349;PMS5003;64554;43.452;4.934;2023-01-16T03:41:52;6.60;3.00;2.00
69349;PMS5003;64554;43.452;4.934;2023-01-16T03:44:24;3.75;3.00;1.00
69349;PMS5003;64554;43.452;4.934;2023-01-16T03:46:55;4.00;3.00;1.00
69349;PMS5003;64554;43.452;4.934;2023-01-16T03:49:27;4.00;4.00;1.60
69349;PMS5003;64554;43.452;4.934;2023-01-16T03:51:59;5.00;5.00;2.00
69349;PMS5003;64554;43.452;4.934;2023-01-16T03:59:44;6.00;5.00;3.00
69349;PMS5003;64554;43.452;4.934;2023-01-16T04:09:43;7.00;6.00;4.00
69349;PMS5003;64554;43.452;4.934;2023-01-16T04:12:12;3.00;2.20;2.00
69349;PMS5003;64554;43.452;4.934;2023-01-16T04:14:44;7.00;5.00;3.00
69349;PMS5003;64554;43.452;4.934;2023-01-16T04:17:12;9.00;6.25;4.00
69349;PMS5003;64554;43.452;4.934;2023-01-16T04:19:39;11.00;9.00;5.00
69349;PMS5003;64554;43.452;4.934;2023-01-16T04:22:07;10.00;9.00;6.00
69349;PMS5003;64554;43.452;4.934;2023-01-16T04:24:34;12.00;10.00;6.00
69349;PMS5003;64554;43.452;4.934;2023-01-16T04:27:01;14.00;11.00;5.50
69349;PMS5003;64554;43.452;4.934;2023-01-16T04:29:27;15.00;12.50;8.00
69349;PMS5003;64554;43.452;4.934;2023-01-16T04:31:54;12.00;9.00;5.50
69349;PMS5003;64554;43.452;4.934;2023-01-16T04:34:20;18.00;13.00;6.50
69349;PMS5003;64554;43.452;4.934;2023-01-16T04:36:47;11.00;10.00;6.00
69349;PMS5003;64554;43.452;4.934;2023-01-16T04:39:13;11.25;10.00;5.50
69349;PMS5003;64554;43.452;4.934;2023-01-16T04:41:40;9.00;9.00;5.00
69349;PMS5003;64554;43.452;4.934;2023-01-16T04:44:08;7.50;7.50;5.00
69349;PMS5003;64554;43.452;4.934;2023-01-16T04:46:35;5.20;5.20;4.00
69349;PMS5003;64554;43.452;4.934;2023-01-16T04:49:04;5.00;5.00;3.20
69349;PMS5003;64554;43.452;4.934;2023-01-16T04:51:31;8.00;7.00;4.60
69349;PMS5003;64554;43.452;4.934;2023-01-16T04:53:58;10.50;8.50;5.00
69349;PMS5003;64554;43.452;4.934;2023-01-16T04:56:25;10.50;7.00;4.00
69349;PMS5003;64554;43.452;4.934;2023-01-16T04:58:51;5.50;5.50;3.00
69349;PMS5003;64554;43.452;4.934;2023-01-16T05:01:19;10.60;9.80;3.40
69349;PMS5003;64554;43.452;4.934;2023-01-16T05:03:46;6.75;6.75;3.00
69349;PMS5003;64554;43.452;4.934;2023-01-16T05:06:13;8.20;8.00;5.00
69349;PMS5003;64554;43.452;4.934;2023-01-16T05:08:39;8.75;6.75;4.00
69349;PMS5003;64554;43.452;4.934;2023-01-16T05:11:06;8.75;6.00;4.00
69349;PMS5003;64554;43.452;4.934;2023-01-16T05:13:32;13.20;9.80;5.20
69349;PMS5003;64554;43.452;4.934;2023-01-16T05:15:59;14.20;10.20;6.80
69349;PMS5003;64554;43.452;4.934;2023-01-16T05:18:25;10.25;9.50;8.00
69349;PMS5003;64554;43.452;4.934;2023-01-16T05:20:52;15.60;12.40;8.00
69349;PMS5003;64554;43.452;4.934;2023-01-16T05:23:18;13.00;10.50;7.00
69349;PMS5003;64554;43.452;4.934;2023-01-16T05:25:45;13.00;13.00;9.00
69349;PMS5003;64554;43.452;4.934;2023-01-16T05:28:12;12.60;10.20;7.00
69349;PMS5003;64554;43.452;4.934;2023-01-16T05:30:38;13.50;11.00;6.00
69349;PMS5003;64554;43.452;4.934;2023-01-16T05:33:06;12.00;9.00;6.00
69349;PMS5003;64554;43.452;4.934;2023-01-16T05:35:33;10.60;9.00;5.00
69349;PMS5003;64554;43.452;4.934;2023-01-16T05:37:59;8.50;6.50;4.00
69349;PMS5003;64554;43.452;4.934;2023-01-16T05:40:26;11.00;6.40;4.00
69349;PMS5003;64554;43.452;4.934;2023-01-16T05:42:52;13.20;12.20;4.00
69349;PMS5003;64554;43.452;4.934;2023-01-16T05:45:19;9.50;8.00;5.00
69349;PMS5003;64554;43.452;4.934;2023-01-16T05:47:45;8.60;8.00;6.00
69349;PMS5003;64554;43.452;4.934;2023-01-16T05:50:12;8.50;8.50;6.00
69349;PMS5003;64554;43.452;4.934;2023-01-16T05:52:38;20.50;14.00;9.75
69349;PMS5003;64554;43.452;4.934;2023-01-16T05:55:05;11.00;10.00;6.25
69349;PMS5003;64554;43.452;4.934;2023-01-16T05:57:32;12.00;10.00;6.20
69349;PMS5003;64554;43.452;4.934;2023-01-16T05:59:58;11.50;8.75;6.00
69349;PMS5003;64554;43.452;4.934;2023-01-16T06:02:25;11.50;10.50;6.00
69349;PMS5003;64554;43.452;4.934;2023-01-16T06:04:51;16.40;14.00;9.00
69349;PMS5003;64554;43.452;4.934;2023-01-16T06:07:18;13.00;11.00;7.00
69349;PMS5003;64554;43.452;4.934;2023-01-16T06:09:45;13.00;12.00;8.50
69349;PMS5003;64554;43.452;4.934;2023-01-16T06:12:12;12.00;11.00;7.00
69349;PMS5003;64554;43.452;4.934;2023-01-16T06:14:40;13.00;11.00;7.00
69349;PMS5003;64554;43.452;4.934;2023-01-16T06:17:06;4.00;2.00;1.00
69349;PMS5003;64554;43.452;4.934;2023-01-16T06:19:33;3.00;2.00;1.00
69349;PMS5003;64554;43.452;4.934;2023-01-16T06:21:59;2.50;2.50;1.00
69349;PMS5003;64554;43.452;4.934;2023-01-16T06:24:26;6.00;4.00;1.00
69349;PMS5003;64554;43.452;4.934;2023-01-16T06:26:52;2.00;2.00;1.00
69349;PMS5003;64554;43.452;4.934;2023-01-16T06:29:19;3.00;3.00;2.00
69349;PMS5003;64554;43.452;4.934;2023-01-16T06:31:45;6.00;5.00;2.00
69349;PMS5003;64554;43.452;4.934;2023-01-16T06:34:12;2.00;2.00;1.00
69349;PMS5003;64554;43.452;4.934;2023-01-16T06:36:38;6.25;3.75;2.00
69349;PMS5003;64554;43.452;4.934;2023-01-16T06:39:07;5.60;4.00;2.00
69349;PMS5003;64554;43.452;4.934;2023-01-16T06:41:34;10.00;5.33;3.33
69349;PMS5003;64554;43.452;4.934;2023-01-16T06:44:01;2.20;2.00;1.00
69349;PMS5003;64554;43.452;4.934;2023-01-16T06:46:27;3.00;2.00;0.80
69349;PMS5003;64554;43.452;4.934;2023-01-16T06:48:54;3.60;2.60;0.60
69349;PMS5003;64554;43.452;4.934;2023-01-16T06:51:20;3.40;2.40;0.40
69349;PMS5003;64554;43.452;4.934;2023-01-16T06:53:47;2.50;2.50;1.50
69349;PMS5003;64554;43.452;4.934;2023-01-16T06:56:13;5.00;4.00;2.00
69349;PMS5003;64554;43.452;4.934;2023-01-16T06:58:40;3.00;3.00;1.00
69349;PMS5003;64554;43.452;4.934;2023-01-16T07:01:06;5.00;3.00;2.00
69349;PMS5003;64554;43.452;4.934;2023-01-16T07:03:33;3.00;3.00;1.00
69349;PMS5003;64554;43.452;4.934;2023-01-16T07:05:59;2.00;2.00;1.00
69349;PMS5003;64554;43.452;4.934;2023-01-16T07:08:26;2.00;2.00;1.00
69349;PMS5003;64554;43.452;4.934;2023-01-16T07:10:52;4.60;2.00;2.00
69349;PMS5003;64554;43.452;4.934;2023-01-16T07:13:19;4.00;3.00;1.00
69349;PMS5003;64554;43.452;4.934;2023-01-16T07:15:53;3.00;3.00;0.00
69349;PMS5003;64554;43.452;4.934;2023-01-16T07:18:38;5.50;2.50;1.00
69349;PMS5003;64554;43.452;4.934;2023-01-16T07:21:24;2.00;2.00;1.00
69349;PMS5003;64554;43.452;4.934;2023-01-16T07:24:10;8.00;2.50;1.00
69349;PMS5003;64554;43.452;4.934;2023-01-16T07:26:40;4.00;1.50;0.50
69349;PMS5003;64554;43.452;4.934;2023-01-16T07:29:07;3.00;2.00;1.00
69349;PMS5003;64554;43.452;4.934;2023-01-16T07:31:34;9.67;3.33;1.00
69349;PMS5003;64554;43.452;4.934;2023-01-16T07:34:01;2.20;2.00;1.00
69349;PMS5003;64554;43.452;4.934;2023-01-16T07:36:28;3.00;3.00;1.00
69349;PMS5003;64554;43.452;4.934;2023-01-16T07:38:54;3.60;2.40;0.20
69349;PMS5003;64554;43.452;4.934;2023-01-16T07:41:21;2.00;1.00;0.00
69349;PMS5003;64554;43.452;4.934;2023-01-16T07:43:47;3.00;2.00;0.00
69349;PMS5003;64554;43.452;4.934;2023-01-16T07:46:14;4.00;4.00;2.00
69349;PMS5003;64554;43.452;4.934;2023-01-16T07:48:40;6.50;3.50;1.00
69349;PMS5003;64554;43.452;4.934;2023-01-16T07:51:07;6.50;3.00;1.00
69349;PMS5003;64554;43.452;4.934;2023-01-16T07:53:33;6.00;2.00;1.00
69349;PMS5003;64554;43.452;4.934;2023-01-16T07:56:00;6.00;4.40;2.40
69349;PMS5003;64554;43.452;4.934;2023-01-16T07:58:27;5.67;2.67;0.67
69349;PMS5003;64554;43.452;4.934;2023-01-16T08:00:55;4.50;3.00;0.50
69349;PMS5003;64554;43.452;4.934;2023-01-16T08:03:22;5.25;2.00;0.00
69349;PMS5003;64554;43.452;4.934;2023-01-16T08:05:49;10.25;7.50;3.75
69349;PMS5003;64554;43.452;4.934;2023-01-16T08:08:20;2.25;2.25;0.25
69349;PMS5003;64554;43.452;4.934;2023-01-16T08:10:46;6.20;3.00;0.60
69349;PMS5003;64554;43.452;4.934;2023-01-16T08:13:13;0.50;0.50;0.50
69349;PMS5003;64554;43.452;4.934;2023-01-16T08:15:40;4.00;4.00;2.00
69349;PMS5003;64554;43.452;4.934;2023-01-16T08:18:07;3.00;3.00;1.50
69349;PMS5003;64554;43.452;4.934;2023-01-16T08:20:33;2.50;2.50;1.00
69349;PMS5003;64554;43.452;4.934;2023-01-16T08:22:59;6.00;4.00;2.50
69349;PMS5003;64554;43.452;4.934;2023-01-16T08:25:27;4.00;3.00;2.00
69349;PMS5003;64554;43.452;4.934;2023-01-16T08:27:53;7.50;4.50;1.50
69349;PMS5003;64554;43.452;4.934;2023-01-16T08:30:20;5.80;3.20;1.20
69349;PMS5003;64554;43.452;4.934;2023-01-16T08:32:46;3.25;3.25;0.25
69349;PMS5003;64554;43.452;4.934;2023-01-16T08:35:13;6.00;3.00;1.25
69349;PMS5003;64554;43.452;4.934;2023-01-16T08:37:43;7.00;4.75;1.75
69349;PMS5003;64554;43.452;4.934;2023-01-16T08:40:13;5.80;4.60;2.60
69349;PMS5003;64554;43.452;4.934;2023-01-16T08:42:39;6.60;5.60;3.00
69349;PMS5003;64554;43.452;4.934;2023-01-16T08:45:25;6.40;6.40;4.00
69349;PMS5003;64554;43.452;4.934;2023-01-16T08:48:10;4.20;4.20;1.80
69349;PMS5003;64554;43.452;4.934;2023-01-16T08:50:55;11.50;6.00;1.25
69349;PMS5003;64554;43.452;4.934;2023-01-16T08:53:41;5.50;5.50;4.00
69349;PMS5003;64554;43.452;4.934;2023-01-16T08:56:07;7.00;5.00;3.00
69349;PMS5003;64554;43.452;4.934;2023-01-16T08:58:34;3.60;3.60;1.60
69349;PMS5003;64554;43.452;4.934;2023-01-16T09:01:00;8.00;4.00;2.00
69349;PMS5003;64554;43.452;4.934;2023-01-16T09:03:28;3.50;2.50;0.75
69349;PMS5003;64554;43.452;4.934;2023-01-16T09:05:54;7.40;4.80;1.60
69349;PMS5003;64554;43.452;4.934;2023-01-16T09:08:21;4.20;1.60;0.20
69349;PMS5003;64554;43.452;4.934;2023-01-16T09:10:48;6.60;3.00;2.00
69349;PMS5003;64554;43.452;4.934;2023-01-16T09:13:33;4.40;3.40;2.40
69349;PMS5003;64554;43.452;4.934;2023-01-16T09:16:24;3.50;3.50;2.00
69349;PMS5003;64554;43.452;4.934;2023-01-16T09:18:51;6.00;4.40;2.00
69349;PMS5003;64554;43.452;4.934;2023-01-16T09:21:18;7.00;4.00;2.00
69349;PMS5003;64554;43.452;4.934;2023-01-16T09:23:45;5.00;4.00;2.00
69349;PMS5003;64554;43.452;4.934;2023-01-16T09:26:12;8.00;4.40;2.00
69349;PMS5003;64554;43.452;4.934;2023-01-16T09:28:38;5.00;4.00;2.00
69349;PMS5003;64554;43.452;4.934;2023-01-16T09:31:05;5.25;4.00;3.00
69349;PMS5003;64554;43.452;4.934;2023-01-16T09:33:31;6.20;4.00;2.00
69349;PMS5003;64554;43.452;4.934;2023-01-16T09:35:58;4.00;4.00;2.00
69349;PMS5003;64554;43.452;4.934;2023-01-16T09:38:24;4.00;4.00;3.00
69349;PMS5003;64554;43.452;4.934;2023-01-16T09:40:52;12.00;8.00;4.00
69349;PMS5003;64554;43.452;4.934;2023-01-16T09:46:09;6.40;6.40;4.00
69349;PMS5003;64554;43.452;4.934;2023-01-16T09:51:30;8.00;4.00;2.00
69349;PMS5003;64554;43.452;4.934;2023-01-16T09:56:47;14.00;13.00;8.50
69349;PMS5003;64554;43.452;4.934;2023-01-16T10:04:38;3.80;2.60;1.60
69349;PMS5003;64554;43.452;4.934;2023-01-16T10:10:06;11.00;8.20;5.00
69349;PMS5003;64554;43.452;4.934;2023-01-16T10:12:39;6.50;5.25;3.75
69349;PMS5003;64554;43.452;4.934;2023-01-16T10:15:30;4.00;4.00;2.00
69349;PMS5003;64554;43.452;4.934;2023-01-16T10:25:58;0.00;0.00;0.00
69349;PMS5003;64554;43.452;4.934;2023-01-16T10:31:08;1.60;0.00;0.00
69349;PMS5003;64554;43.452;4.934;2023-01-16T10:33:54;2.75;1.75;0.00
69349;PMS5003;64554;43.452;4.934;2023-01-16T10:36:30;0.20;0.20;0.00
69349;PMS5003;64554;43.452;4.934;2023-01-16T10:38:58;5.20;1.00;1.00
69349;PMS5003;64554;43.452;4.934;2023-01-16T10:47:08;1.00;1.00;0.00
69349;PMS5003;64554;43.452;4.934;2023-01-16T10:49:54;0.00;0.00;0.00
69349;PMS5003;64554;43.452;4.934;2023-01-16T10:52:21;1.40;0.00;0.00
69349;PMS5003;64554;43.452;4.934;2023-01-16T10:54:48;8.40;7.60;3.00
69349;PMS5003;64554;43.452;4.934;2023-01-16T10:57:15;22.50;17.00;8.25
69349;PMS5003;64554;43.452;4.934;2023-01-16T10:59:42;14.75;11.00;6.75
69349;PMS5003;64554;43.452;4.934;2023-01-16T11:02:17;5.75;4.00;1.00
69349;PMS5003;64554;43.452;4.934;2023-01-16T11:04:48;10.50;7.75;2.00
69349;PMS5003;64554;43.452;4.934;2023-01-16T11:07:16;8.60;3.40;0.80
69349;PMS5003;64554;43.452;4.934;2023-01-16T11:09:44;5.60;4.20;1.00
69349;PMS5003;64554;43.452;4.934;2023-01-16T11:12:15;1.20;0.80;0.00
69349;PMS5003;64554;43.452;4.934;2023-01-16T11:15:02;4.00;3.25;1.00
69349;PMS5003;64554;43.452;4.934;2023-01-16T11:17:52;6.60;6.60;1.00
69349;PMS5003;64554;43.452;4.934;2023-01-16T11:20:38;1.00;1.00;0.00
69349;PMS5003;64554;43.452;4.934;2023-01-16T11:25:38;1.00;0.00;0.00
69349;PMS5003;64554;43.452;4.934;2023-01-16T11:28:06;2.00;1.00;0.00
69349;PMS5003;64554;43.452;4.934;2023-01-16T11:30:38;0.00;0.00;0.00
69349;PMS5003;64554;43.452;4.934;2023-01-16T11:33:09;0.25;0.25;0.00
69349;PMS5003;64554;43.452;4.934;2023-01-16T11:35:39;1.75;1.75;0.25
69349;PMS5003;64554;43.452;4.934;2023-01-16T11:38:11;2.00;1.00;0.00
69349;PMS5003;64554;43.452;4.934;2023-01-16T11:40:44;1.40;0.00;0.00
69349;PMS5003;64554;43.452;4.934;2023-01-16T11:43:13;0.60;0.60;0.00
69349;PMS5003;64554;43.452;4.934;2023-01-16T11:45:58;1.00;1.00;0.00
69349;PMS5003;64554;43.452;4.934;2023-01-16T11:48:39;1.00;1.00;0.00
69349;PMS5003;64554;43.452;4.934;2023-01-16T11:51:06;0.00;0.00;0.00
69349;PMS5003;64554;43.452;4.934;2023-01-16T11:53:36;2.00;1.00;0.00
69349;PMS5003;64554;43.452;4.934;2023-01-16T12:01:20;11.00;10.20;4.00
69349;PMS5003;64554;43.452;4.934;2023-01-16T12:06:21;4.00;2.50;1.00
69349;PMS5003;64554;43.452;4.934;2023-01-16T12:09:03;4.60;2.00;1.00
69349;PMS5003;64554;43.452;4.934;2023-01-16T12:14:10;6.60;1.00;0.00
69349;PMS5003;64554;43.452;4.934;2023-01-16T12:17:05;7.00;5.25;2.00
69349;PMS5003;64554;43.452;4.934;2023-01-16T12:22:09;5.25;4.00;1.00
69349;PMS5003;64554;43.452;4.934;2023-01-16T12:24:43;8.00;6.00;2.50
69349;PMS5003;64554;43.452;4.934;2023-01-16T12:32:22;2.00;1.00;0.00
69349;PMS5003;64554;43.452;4.934;2023-01-16T12:35:14;3.00;1.00;0.00
69349;PMS5003;64554;43.452;4.934;2023-01-16T12:45:49;2.00;2.00;0.00
69349;PMS5003;64554;43.452;4.934;2023-01-16T12:50:54;6.00;3.00;1.00
69349;PMS5003;64554;43.452;4.934;2023-01-16T12:53:45;4.00;1.00;0.00
69349;PMS5003;64554;43.452;4.934;2023-01-16T12:58:47;15.00;11.50;7.00
69349;PMS5003;64554;43.452;4.934;2023-01-16T13:01:17;19.50;16.00;8.00
69349;PMS5003;64554;43.452;4.934;2023-01-16T13:06:13;7.00;7.00;3.00
69349;PMS5003;64554;43.452;4.934;2023-01-16T13:08:46;10.40;6.00;3.00
69349;PMS5003;64554;43.452;4.934;2023-01-16T13:11:50;7.00;6.00;3.50
69349;PMS5003;64554;43.452;4.934;2023-01-16T13:14:31;1.20;1.20;0.60
69349;PMS5003;64554;43.452;4.934;2023-01-16T13:19:26;1.40;1.00;0.00
69349;PMS5003;64554;43.452;4.934;2023-01-16T13:21:59;5.25;2.00;0.75
69349;PMS5003;64554;43.452;4.934;2023-01-16T13:24:29;2.50;2.50;0.50
69349;PMS5003;64554;43.452;4.934;2023-01-16T13:26:57;1.75;1.25;0.00
69349;PMS5003;64554;43.452;4.934;2023-01-16T13:29:31;1.60;0.60;0.00
69349;PMS5003;64554;43.452;4.934;2023-01-16T13:32:01;3.50;0.50;0.00
69349;PMS5003;64554;43.452;4.934;2023-01-16T13:34:48;13.25;7.25;1.25
69349;PMS5003;64554;43.452;4.934;2023-01-16T13:42:28;5.60;2.00;0.80
69349;PMS5003;64554;43.452;4.934;2023-01-16T13:45:00;4.00;3.00;1.50
69349;PMS5003;64554;43.452;4.934;2023-01-16T13:47:47;4.25;3.00;1.00
69349;PMS5003;64554;43.452;4.934;2023-01-16T13:50:21;1.00;1.00;0.00
69349;PMS5003;64554;43.452;4.934;2023-01-16T13:52:49;4.40;2.00;0.00
69349;PMS5003;64554;43.452;4.934;2023-01-16T13:57:49;1.00;1.00;0.00
69349;PMS5003;64554;43.452;4.934;2023-01-16T14:00:16;2.00;0.00;0.00
69349;PMS5003;64554;43.452;4.934;2023-01-16T14:02:45;1.40;0.00;0.00
69349;PMS5003;64554;43.452;4.934;2023-01-16T14:08:13;11.00;3.00;0.60
69349;PMS5003;64554;43.452;4.934;2023-01-16T14:13:35;3.40;1.60;0.00
69349;PMS5003;64554;43.452;4.934;2023-01-16T14:21:43;2.75;1.50;0.00
69349;PMS5003;64554;43.452;4.934;2023-01-16T14:24:40;2.00;0.25;0.00
69349;PMS5003;64554;43.452;4.934;2023-01-16T14:27:11;1.40;0.00;0.00
69349;PMS5003;64554;43.452;4.934;2023-01-16T14:30:01;0.00;0.00;0.00
69349;PMS5003;64554;43.452;4.934;2023-01-16T14:32:26;1.50;0.50;0.00
69349;PMS5003;64554;43.452;4.934;2023-01-16T14:34:57;1.60;0.60;0.00
69349;PMS5003;64554;43.452;4.934;2023-01-16T14:37:28;1.00;0.00;0.00
69349;PMS5003;64554;43.452;4.934;2023-01-16T14:39:57;1.00;0.00;0.00
69349;PMS5003;64554;43.452;4.934;2023-01-16T14:45:40;0.00;0.00;0.00
69349;PMS5003;64554;43.452;4.934;2023-01-16T14:51:33;1.00;0.00;0.00
69349;PMS5003;64554;43.452;4.934;2023-01-16T14:57:08;3.40;3.40;1.00
69349;PMS5003;64554;43.452;4.934;2023-01-16T14:59:37;4.80;4.80;2.00
69349;PMS5003;64554;43.452;4.934;2023-01-16T15:02:26;11.00;11.00;5.50
69349;PMS5003;64554;43.452;4.934;2023-01-16T15:09:56;4.40;3.00;2.00
69349;PMS5003;64554;43.452;4.934;2023-01-16T15:12:34;2.00;2.00;1.00
69349;PMS5003;64554;43.452;4.934;2023-01-16T15:15:01;1.40;1.40;0.20
69349;PMS5003;64554;43.452;4.934;2023-01-16T15:17:35;0.80;0.80;0.00
69349;PMS5003;64554;43.452;4.934;2023-01-16T15:20:30;2.00;2.00;1.00
69349;PMS5003;64554;43.452;4.934;2023-01-16T15:23:20;0.60;0.60;0.00
69349;PMS5003;64554;43.452;4.934;2023-01-16T15:33:43;1.00;0.00;0.00
69349;PMS5003;64554;43.452;4.934;2023-01-16T15:38:51;0.00;0.00;0.00
69349;PMS5003;64554;43.452;4.934;2023-01-16T15:41:26;2.80;0.60;0.00
69349;PMS5003;64554;43.452;4.934;2023-01-16T15:44:16;2.00;2.00;1.00
69349;PMS5003;64554;43.452;4.934;2023-01-16T15:47:48;1.00;1.00;0.00
69349;PMS5003;64554;43.452;4.934;2023-01-16T15:50:00;2.00;1.75;1.00
69349;PMS5003;64554;43.452;4.934;2023-01-16T15:52:30;1.80;1.00;0.00
69349;PMS5003;64554;43.452;4.934;2023-01-16T15:54:57;2.50;1.00;0.00
69349;PMS5003;64554;43.452;4.934;2023-01-16T15:57:24;2.00;0.00;0.00
69349;PMS5003;64554;43.452;4.934;2023-01-16T15:59:51;2.20;1.00;0.00
69349;PMS5003;64554;43.452;4.934;2023-01-16T16:02:25;0.40;0.00;0.00
69349;PMS5003;64554;43.452;4.934;2023-01-16T16:04:54;0.20;0.20;0.00
69349;PMS5003;64554;43.452;4.934;2023-01-16T16:07:22;0.75;0.75;0.75
69349;PMS5003;64554;43.452;4.934;2023-01-16T16:09:49;3.25;2.00;1.00
69349;PMS5003;64554;43.452;4.934;2023-01-16T16:12:17;5.00;3.60;2.00
69349;PMS5003;64554;43.452;4.934;2023-01-16T16:14:45;2.60;1.00;0.60
69349;PMS5003;64554;43.452;4.934;2023-01-16T16:17:31;3.25;3.25;0.75
69349;PMS5003;64554;43.452;4.934;2023-01-16T16:20:30;6.00;5.00;2.00
69349;PMS5003;64554;43.452;4.934;2023-01-16T16:25:37;5.00;5.00;2.00
69349;PMS5003;64554;43.452;4.934;2023-01-16T16:28:05;11.50;11.25;3.00
69349;PMS5003;64554;43.452;4.934;2023-01-16T16:30:40;7.00;7.00;3.00
69349;PMS5003;64554;43.452;4.934;2023-01-16T16:33:13;7.00;5.33;2.00
69349;PMS5003;64554;43.452;4.934;2023-01-16T16:35:41;8.00;8.00;4.00
69349;PMS5003;64554;43.452;4.934;2023-01-16T16:38:31;4.20;4.20;2.00
69349;PMS5003;64554;43.452;4.934;2023-01-16T16:48:49;9.00;8.00;2.00
69349;PMS5003;64554;43.452;4.934;2023-01-16T16:51:18;3.00;3.00;1.00
69349;PMS5003;64554;43.452;4.934;2023-01-16T16:53:46;1.50;1.50;0.00
69349;PMS5003;64554;43.452;4.934;2023-01-16T16:56:14;0.00;0.00;0.00
69349;PMS5003;64554;43.452;4.934;2023-01-16T16:58:45;2.00;2.00;0.00
69349;PMS5003;64554;43.452;4.934;2023-01-16T17:04:49;1.00;1.00;0.20
69349;PMS5003;64554;43.452;4.934;2023-01-16T17:07:16;3.00;2.00;1.00
69349;PMS5003;64554;43.452;4.934;2023-01-16T17:09:42;2.00;2.00;1.00
69349;PMS5003;64554;43.452;4.934;2023-01-16T17:12:12;2.00;2.00;1.00
69349;PMS5003;64554;43.452;4.934;2023-01-16T17:14:39;1.00;1.00;0.00
69349;PMS5003;64554;43.452;4.934;2023-01-16T17:17:09;2.00;1.00;0.50
69349;PMS5003;64554;43.452;4.934;2023-01-16T17:19:37;1.60;1.60;1.00
69349;PMS5003;64554;43.452;4.934;2023-01-16T17:22:03;11.80;11.80;7.00
69349;PMS5003;64554;43.452;4.934;2023-01-16T17:24:30;26.00;22.00;10.00
69349;PMS5003;64554;43.452;4.934;2023-01-16T17:26:57;10.50;6.00;3.00
69349;PMS5003;64554;43.452;4.934;2023-01-16T17:29:23;3.40;2.00;0.60
69349;PMS5003;64554;43.452;4.934;2023-01-16T17:31:50;6.00;6.00;2.00
69349;PMS5003;64554;43.452;4.934;2023-01-16T17:34:17;9.80;4.40;2.00